1930 NOT_NAMED (1930226N16146)


IBTrACS version v04r00. Visit IBTrACS website for data access.
Please direct all questions to the IBTrACS Q and A forum

Storm track - Intensity - Wind Radii - Intensity Data - Source Data - All data

Summary Information

Storm ID 1930226N16146
Start Aug 13 22Z
End Aug 18 22Z
ATCF IDs
Track status Best track data.

Storm track plot

Map of storm track

Intensity plots

No Intensity information for this storm


Radial wind information

No radial wind information for this storm


Position and Intensity Table

BASIN ISO_TIME_________ NATURE LAT LON
degrees north degrees east
WP 1930-08-13 22:00:00 NR 16.00 146.20
WP 1930-08-14 00:00:00 NR 16.20 145.92
WP 03:00:00 NR 16.49 145.50
WP 06:00:00 NR 16.76 145.10
WP 09:00:00 NR 17.02 144.72
WP 10:00:00 NR 17.10 144.60
WP 12:00:00 NR 17.25 144.37
WP 15:00:00 NR 17.46 144.03
WP 18:00:00 NR 17.65 143.67
WP 21:00:00 NR 17.84 143.26
WP 22:00:00 NR 17.90 143.10
WP 1930-08-15 00:00:00 NR 18.02 142.73
WP 03:00:00 NR 18.21 142.10
WP 06:00:00 NR 18.40 141.45
WP 09:00:00 NR 18.62 140.80
WP 10:00:00 NR 18.70 140.60
WP 12:00:00 NR 18.87 140.19
WP 15:00:00 NR 19.14 139.60
WP 18:00:00 NR 19.45 139.09
WP 21:00:00 NR 19.78 138.70
WP 22:00:00 NR 19.90 138.60
WP 1930-08-16 00:00:00 NR 20.14 138.46
WP 03:00:00 NR 20.53 138.37
WP 06:00:00 NR 20.94 138.38
WP 09:00:00 NR 21.36 138.46
WP 10:00:00 NR 21.50 138.50
WP 12:00:00 NR 21.76 138.53
WP 15:00:00 NR 22.14 138.62
WP 18:00:00 NR 22.53 138.75
WP 21:00:00 NR 22.95 138.93
WP 22:00:00 NR 23.10 139.00
WP 1930-08-17 00:00:00 NR 23.40 139.13
WP 03:00:00 NR 23.88 139.35
WP 06:00:00 NR 24.39 139.63
WP 09:00:00 NR 24.92 139.97
WP 10:00:00 NR 25.10 140.10
WP 12:00:00 NR 25.51 140.40
WP 15:00:00 NR 26.14 140.92
WP 18:00:00 NR 26.74 141.45
WP 21:00:00 NR 27.26 141.95
WP 22:00:00 NR 27.40 142.10
WP 1930-08-18 00:00:00 NR 27.62 142.33
WP 03:00:00 NR 27.86 142.63
WP 06:00:00 NR 28.03 142.88
WP 09:00:00 NR 28.16 143.12
WP 10:00:00 NR 28.20 143.20
WP 12:00:00 NR 28.29 143.38
WP 15:00:00 NR 28.43 143.66
WP 18:00:00 NR 28.59 143.97
WP 21:00:00 NR 28.75 144.29
WP 22:00:00 NR 28.80 144.40

Source Information

Agency Information
USA
TOKYO
CMA
HKO
NEWDELHI
REUNION
BOM
NADI
WELLINGTON
DS824
TD9636 cons_worldwide_trop_cyclone_18710101-19891231-003:Line=8648
TD9635
NEUMANN
MLC

All available IBTrACS Data

SEASON BASIN SUBBASIN ISO_TIME_________ NATURE LAT LON DIST2LAND LANDFALL IFLAG USA SSHS TD9636 LAT TD9636 LON TD9636 STAGE STORM SPEED STORM DIR
Year degrees north degrees east km km 1 degrees north degrees east kts degrees
1930 WP MM 1930-08-13 22:00:00 NR 16.00 146.20 2028 2028 __________O___ -1 16.00 146.20 7 10 306
1930 WP MM 1930-08-14 00:00:00 NR 16.20 145.92 2051 2051 __________P___ -1 16.20 145.92 7 10 306
1930 WP MM 03:00:00 NR 16.49 145.50 2087 2074 __________P___ -1 16.49 145.50 7 10 306
1930 WP MM 06:00:00 NR 16.76 145.10 2074 2036 __________P___ -1 16.76 145.10 7 9 305
1930 WP MM 09:00:00 NR 17.02 144.72 2036 2022 __________P___ -1 17.02 144.72 7 9 305
1930 WP MM 10:00:00 NR 17.10 144.60 2022 2003 __________O___ -1 17.10 144.60 7 8 304
1930 WP MM 12:00:00 NR 17.25 144.37 2003 1955 __________P___ -1 17.25 144.37 7 8 303
1930 WP MM 15:00:00 NR 17.46 144.03 1955 1932 __________P___ -1 17.46 144.03 7 8 301
1930 WP MM 18:00:00 NR 17.65 143.67 1932 1896 __________P___ -1 17.65 143.67 7 8 297
1930 WP MM 21:00:00 NR 17.84 143.26 1896 1877 __________P___ -1 17.84 143.26 7 9 295
1930 WP MM 22:00:00 NR 17.90 143.10 1877 1852 __________O___ -1 17.90 143.10 7 11 290
1930 WP MM 1930-08-15 00:00:00 NR 18.02 142.73 1852 1809 __________P___ -1 18.02 142.73 7 12 288
1930 WP MM 03:00:00 NR 18.21 142.10 1809 1765 __________P___ -1 18.21 142.10 7 13 287
1930 WP MM 06:00:00 NR 18.40 141.45 1765 1713 __________P___ -1 18.40 141.45 7 13 288
1930 WP MM 09:00:00 NR 18.62 140.80 1713 1692 __________P___ -1 18.62 140.80 7 13 290
1930 WP MM 10:00:00 NR 18.70 140.60 1692 1651 __________O___ -1 18.70 140.60 7 13 293
1930 WP MM 12:00:00 NR 18.87 140.19 1651 1600 __________P___ -1 18.87 140.19 7 13 295
1930 WP MM 15:00:00 NR 19.14 139.60 1600 1545 __________P___ -1 19.14 139.60 7 12 299
1930 WP MM 18:00:00 NR 19.45 139.09 1545 1485 __________P___ -1 19.45 139.09 7 11 307
1930 WP MM 21:00:00 NR 19.78 138.70 1485 1470 __________P___ -1 19.78 138.70 7 10 314
1930 WP MM 22:00:00 NR 19.90 138.60 1470 1445 __________O___ -1 19.90 138.60 7 9 328
1930 WP MM 1930-08-16 00:00:00 NR 20.14 138.46 1445 1402 __________P___ -1 20.14 138.46 7 8 341
1930 WP MM 03:00:00 NR 20.53 138.37 1402 1363 __________P___ -1 20.53 138.37 7 8 355
1930 WP MM 06:00:00 NR 20.94 138.38 1363 1320 __________P___ -1 20.94 138.38 7 8 6
1930 WP MM 09:00:00 NR 21.36 138.46 1320 1311 __________P___ -1 21.36 138.46 7 9 11
1930 WP MM 10:00:00 NR 21.50 138.50 1311 1282 __________O___ -1 21.50 138.50 7 8 9
1930 WP MM 12:00:00 NR 21.76 138.53 1282 1259 __________P___ -1 21.76 138.53 7 8 10
1930 WP MM 15:00:00 NR 22.14 138.62 1259 1228 __________P___ -1 22.14 138.62 7 8 15
1930 WP MM 18:00:00 NR 22.53 138.75 1234 1194 __________P___ -1 22.53 138.75 7 9 19
1930 WP MM 21:00:00 NR 22.95 138.93 1194 1191 __________P___ -1 22.95 138.93 7 9 22
1930 WP MM 22:00:00 NR 23.10 139.00 1191 1161 __________O___ -1 23.10 139.00 7 10 22
1930 WP MM 1930-08-17 00:00:00 NR 23.40 139.13 1161 1113 __________P___ -1 23.40 139.13 7 10 23
1930 WP MM 03:00:00 NR 23.88 139.35 1116 1070 __________P___ -1 23.88 139.35 7 11 25
1930 WP MM 06:00:00 NR 24.39 139.63 1070 1028 __________P___ -1 24.39 139.63 7 12 29
1930 WP MM 09:00:00 NR 24.92 139.97 1032 1015 __________P___ -1 24.92 139.97 7 12 31
1930 WP MM 10:00:00 NR 25.10 140.10 1015 987 __________O___ -1 25.10 140.10 7 14 34
1930 WP MM 12:00:00 NR 25.51 140.40 987 951 __________P___ -1 25.51 140.40 7 15 35
1930 WP MM 15:00:00 NR 26.14 140.92 951 915 __________P___ -1 26.14 140.92 7 16 37
1930 WP MM 18:00:00 NR 26.74 141.45 918 869 __________P___ -1 26.74 141.45 7 15 40
1930 WP MM 21:00:00 NR 27.26 141.95 869 862 __________P___ -1 27.26 141.95 7 13 41
1930 WP MM 22:00:00 NR 27.40 142.10 862 845 __________O___ -1 27.40 142.10 3 10 43
1930 WP MM 1930-08-18 00:00:00 NR 27.62 142.33 845 821 __________P___ -1 27.62 142.33 3 8 45
1930 WP MM 03:00:00 NR 27.86 142.63 821 817 __________P___ -1 27.86 142.63 3 6 50
1930 WP MM 06:00:00 NR 28.03 142.88 820 806 __________P___ -1 28.03 142.88 3 5 56
1930 WP MM 09:00:00 NR 28.16 143.12 806 806 __________P___ -1 28.16 143.12 3 5 59
1930 WP MM 10:00:00 NR 28.20 143.20 809 803 __________O___ -1 28.20 143.20 4 5 61
1930 WP MM 12:00:00 NR 28.29 143.38 807 800 __________P___ -1 28.29 143.38 4 6 60
1930 WP MM 15:00:00 NR 28.43 143.66 808 797 __________P___ -1 28.43 143.66 4 6 60
1930 WP MM 18:00:00 NR 28.59 143.97 802 796 __________P___ -1 28.59 143.97 4 6 60
1930 WP MM 21:00:00 NR 28.75 144.29 806 796 __________P___ -1 28.75 144.29 4 6 60
1930 WP MM 22:00:00 NR 28.80 144.40 801 __________O___ -1 28.80 144.40 4 7 61